sensor_id;sensor_type;location;lat;lon;timestamp;pressure;altitude;pressure_sealevel;temperature;humidity
61292;BME280;47165;42.664;23.368;2023-05-01T00:02:08;94978.47;;;15.09;52.66
61292;BME280;47165;42.664;23.368;2023-05-01T00:04:33;94981.44;;;15.05;52.80
61292;BME280;47165;42.664;23.368;2023-05-01T00:06:59;94980.22;;;14.98;53.04
61292;BME280;47165;42.664;23.368;2023-05-01T00:09:26;94977.25;;;15.02;53.15
61292;BME280;47165;42.664;23.368;2023-05-01T00:11:52;94982.03;;;14.97;53.86
61292;BME280;47165;42.664;23.368;2023-05-01T00:14:17;94989.91;;;14.97;54.17
61292;BME280;47165;42.664;23.368;2023-05-01T00:16:43;94993.72;;;14.93;54.33
61292;BME280;47165;42.664;23.368;2023-05-01T00:19:10;94995.00;;;14.87;54.63
61292;BME280;47165;42.664;23.368;2023-05-01T00:21:36;94994.50;;;14.82;54.44
61292;BME280;47165;42.664;23.368;2023-05-01T00:24:02;94992.47;;;14.75;54.77
61292;BME280;47165;42.664;23.368;2023-05-01T00:26:27;94987.66;;;14.68;54.86
61292;BME280;47165;42.664;23.368;2023-05-01T00:28:55;94986.78;;;14.68;54.30
61292;BME280;47165;42.664;23.368;2023-05-01T00:31:23;94993.34;;;14.62;54.40
61292;BME280;47165;42.664;23.368;2023-05-01T00:33:48;94984.97;;;14.57;55.00
61292;BME280;47165;42.664;23.368;2023-05-01T00:36:14;94994.81;;;14.54;54.81
61292;BME280;47165;42.664;23.368;2023-05-01T00:38:39;94999.88;;;14.57;54.80
61292;BME280;47165;42.664;23.368;2023-05-01T00:41:05;94999.88;;;14.57;54.80
61292;BME280;47165;42.664;23.368;2023-05-01T00:43:30;94999.78;;;14.58;54.72
61292;BME280;47165;42.664;23.368;2023-05-01T00:45:56;95000.72;;;14.57;54.73
61292;BME280;47165;42.664;23.368;2023-05-01T00:48:22;95002.59;;;14.55;54.64
61292;BME280;47165;42.664;23.368;2023-05-01T00:50:47;95004.72;;;14.50;55.00
61292;BME280;47165;42.664;23.368;2023-05-01T00:53:13;95011.25;;;14.44;55.05
61292;BME280;47165;42.664;23.368;2023-05-01T00:55:40;95005.63;;;14.38;55.30
61292;BME280;47165;42.664;23.368;2023-05-01T00:58:06;95004.25;;;14.32;55.49
61292;BME280;47165;42.664;23.368;2023-05-01T01:00:32;95003.53;;;14.30;55.31
61292;BME280;47165;42.664;23.368;2023-05-01T01:02:58;95012.97;;;14.33;55.45
61292;BME280;47165;42.664;23.368;2023-05-01T01:05:26;95014.66;;;14.34;55.42
61292;BME280;47165;42.664;23.368;2023-05-01T01:08:04;95019.69;;;14.37;55.43
61292;BME280;47165;42.664;23.368;2023-05-01T01:13:27;95016.31;;;14.35;55.39
61292;BME280;47165;42.664;23.368;2023-05-01T01:16:02;95007.00;;;14.31;55.56
61292;BME280;47165;42.664;23.368;2023-05-01T01:18:36;95026.09;;;14.33;55.69
61292;BME280;47165;42.664;23.368;2023-05-01T01:21:11;95020.34;;;14.27;55.84
61292;BME280;47165;42.664;23.368;2023-05-01T01:29:45;95032.50;;;13.92;57.65
61292;BME280;47165;42.664;23.368;2023-05-01T01:35:24;95033.84;;;13.72;59.29
61292;BME280;47165;42.664;23.368;2023-05-01T01:38:03;95032.41;;;13.55;60.36
61292;BME280;47165;42.664;23.368;2023-05-01T01:40:52;95037.13;;;13.50;61.07
61292;BME280;47165;42.664;23.368;2023-05-01T01:43:21;95035.34;;;13.37;61.15
61292;BME280;47165;42.664;23.368;2023-05-01T01:45:52;95032.66;;;13.24;61.76
61292;BME280;47165;42.664;23.368;2023-05-01T01:48:25;95044.28;;;13.20;62.15
61292;BME280;47165;42.664;23.368;2023-05-01T01:50:52;95028.88;;;13.16;62.03
61292;BME280;47165;42.664;23.368;2023-05-01T01:53:19;95028.88;;;13.16;62.20
61292;BME280;47165;42.664;23.368;2023-05-01T01:55:47;95035.59;;;13.20;61.86
61292;BME280;47165;42.664;23.368;2023-05-01T01:58:14;95028.78;;;13.17;61.97
61292;BME280;47165;42.664;23.368;2023-05-01T02:00:43;95014.50;;;13.08;62.27
61292;BME280;47165;42.664;23.368;2023-05-01T02:03:09;95023.72;;;13.14;62.29
61292;BME280;47165;42.664;23.368;2023-05-01T02:05:38;95026.34;;;13.14;62.57
61292;BME280;47165;42.664;23.368;2023-05-01T02:08:05;95033.88;;;13.06;61.46
61292;BME280;47165;42.664;23.368;2023-05-01T02:10:33;95017.59;;;12.88;61.50
61292;BME280;47165;42.664;23.368;2023-05-01T02:13:00;95030.41;;;12.93;61.18
61292;BME280;47165;42.664;23.368;2023-05-01T02:15:28;95032.47;;;12.87;60.85
61292;BME280;47165;42.664;23.368;2023-05-01T02:17:54;95036.03;;;12.86;60.90
61292;BME280;47165;42.664;23.368;2023-05-01T02:20:20;95027.63;;;12.81;60.61
61292;BME280;47165;42.664;23.368;2023-05-01T02:22:47;95029.97;;;12.86;60.22
61292;BME280;47165;42.664;23.368;2023-05-01T02:25:13;95025.34;;;12.89;60.17
61292;BME280;47165;42.664;23.368;2023-05-01T02:27:55;95030.16;;;12.83;60.43
61292;BME280;47165;42.664;23.368;2023-05-01T02:30:20;95026.13;;;12.64;60.72
61292;BME280;47165;42.664;23.368;2023-05-01T02:32:46;95021.91;;;12.62;60.64
61292;BME280;47165;42.664;23.368;2023-05-01T02:35:11;95026.47;;;12.45;62.19
61292;BME280;47165;42.664;23.368;2023-05-01T02:37:37;95026.19;;;12.36;63.19
61292;BME280;47165;42.664;23.368;2023-05-01T02:40:03;95025.75;;;12.29;63.37
61292;BME280;47165;42.664;23.368;2023-05-01T02:42:31;95023.63;;;12.21;63.36
61292;BME280;47165;42.664;23.368;2023-05-01T02:45:01;95018.78;;;12.15;63.58
61292;BME280;47165;42.664;23.368;2023-05-01T02:47:29;95028.59;;;12.12;63.79
61292;BME280;47165;42.664;23.368;2023-05-01T02:49:58;95020.66;;;12.13;64.22
61292;BME280;47165;42.664;23.368;2023-05-01T02:52:24;95029.81;;;12.20;64.25
61292;BME280;47165;42.664;23.368;2023-05-01T02:54:50;95029.06;;;12.18;64.27
61292;BME280;47165;42.664;23.368;2023-05-01T02:57:16;95026.31;;;12.20;63.99
61292;BME280;47165;42.664;23.368;2023-05-01T02:59:42;95038.78;;;12.16;65.07
61292;BME280;47165;42.664;23.368;2023-05-01T03:02:07;95032.50;;;12.19;64.21
61292;BME280;47165;42.664;23.368;2023-05-01T03:04:33;95036.91;;;12.18;64.95
61292;BME280;47165;42.664;23.368;2023-05-01T03:06:58;95041.13;;;12.21;64.60
61292;BME280;47165;42.664;23.368;2023-05-01T03:09:24;95046.66;;;12.16;64.02
61292;BME280;47165;42.664;23.368;2023-05-01T03:11:49;95044.28;;;12.12;63.09
61292;BME280;47165;42.664;23.368;2023-05-01T03:14:15;95040.31;;;12.06;63.34
61292;BME280;47165;42.664;23.368;2023-05-01T03:16:40;95049.72;;;12.08;64.10
61292;BME280;47165;42.664;23.368;2023-05-01T03:19:06;95054.13;;;11.79;65.24
61292;BME280;47165;42.664;23.368;2023-05-01T03:21:32;95059.50;;;11.76;65.28
61292;BME280;47165;42.664;23.368;2023-05-01T03:23:58;95052.63;;;11.75;65.21
61292;BME280;47165;42.664;23.368;2023-05-01T03:26:24;95052.34;;;11.80;65.44
61292;BME280;47165;42.664;23.368;2023-05-01T03:28:49;95057.47;;;11.81;65.93
61292;BME280;47165;42.664;23.368;2023-05-01T03:31:15;95056.91;;;11.76;66.66
61292;BME280;47165;42.664;23.368;2023-05-01T03:33:40;95069.59;;;11.82;66.53
61292;BME280;47165;42.664;23.368;2023-05-01T03:36:06;95074.00;;;11.82;66.55
61292;BME280;47165;42.664;23.368;2023-05-01T03:38:34;95063.53;;;11.82;66.05
61292;BME280;47165;42.664;23.368;2023-05-01T03:40:59;95065.22;;;11.83;65.90
61292;BME280;47165;42.664;23.368;2023-05-01T03:43:25;95073.28;;;11.94;66.03
61292;BME280;47165;42.664;23.368;2023-05-01T03:45:51;95070.75;;;11.93;66.42
61292;BME280;47165;42.664;23.368;2023-05-01T03:48:17;95075.59;;;11.84;66.80
61292;BME280;47165;42.664;23.368;2023-05-01T03:50:43;95078.41;;;11.81;67.43
61292;BME280;47165;42.664;23.368;2023-05-01T03:53:09;95077.38;;;11.84;67.27
61292;BME280;47165;42.664;23.368;2023-05-01T03:55:34;95088.75;;;11.68;67.20
61292;BME280;47165;42.664;23.368;2023-05-01T03:58:00;95086.59;;;11.61;68.01
61292;BME280;47165;42.664;23.368;2023-05-01T04:00:25;95082.75;;;11.66;67.48
61292;BME280;47165;42.664;23.368;2023-05-01T04:02:51;95091.09;;;11.73;66.47
61292;BME280;47165;42.664;23.368;2023-05-01T04:05:17;95085.28;;;11.68;65.79
61292;BME280;47165;42.664;23.368;2023-05-01T04:07:43;95082.31;;;11.74;64.91
61292;BME280;47165;42.664;23.368;2023-05-01T04:10:08;95088.56;;;11.72;64.31
61292;BME280;47165;42.664;23.368;2023-05-01T04:12:35;95094.25;;;11.64;63.92
61292;BME280;47165;42.664;23.368;2023-05-01T04:15:00;95099.09;;;11.56;64.25
61292;BME280;47165;42.664;23.368;2023-05-01T04:17:27;95084.25;;;11.56;64.15
61292;BME280;47165;42.664;23.368;2023-05-01T04:19:52;95086.59;;;11.61;64.32
61292;BME280;47165;42.664;23.368;2023-05-01T04:22:20;95089.78;;;11.66;64.01
61292;BME280;47165;42.664;23.368;2023-05-01T04:24:46;95093.88;;;11.70;63.94
61292;BME280;47165;42.664;23.368;2023-05-01T04:27:12;95092.59;;;11.77;63.93
61292;BME280;47165;42.664;23.368;2023-05-01T04:29:37;95086.25;;;11.81;63.95
61292;BME280;47165;42.664;23.368;2023-05-01T04:32:03;95092.22;;;11.83;63.76
61292;BME280;47165;42.664;23.368;2023-05-01T04:34:28;95088.66;;;11.84;63.43
61292;BME280;47165;42.664;23.368;2023-05-01T04:36:54;95089.28;;;11.90;63.66
61292;BME280;47165;42.664;23.368;2023-05-01T04:39:22;95087.41;;;11.92;63.73
61292;BME280;47165;42.664;23.368;2023-05-01T04:41:47;95098.63;;;11.94;63.71
61292;BME280;47165;42.664;23.368;2023-05-01T04:44:13;95102.63;;;11.99;63.55
61292;BME280;47165;42.664;23.368;2023-05-01T04:46:38;95103.19;;;12.04;63.62
61292;BME280;47165;42.664;23.368;2023-05-01T04:49:03;95102.16;;;12.07;63.63
61292;BME280;47165;42.664;23.368;2023-05-01T04:51:29;95101.25;;;12.08;63.75
61292;BME280;47165;42.664;23.368;2023-05-01T04:53:55;95106.56;;;12.06;64.26
61292;BME280;47165;42.664;23.368;2023-05-01T04:56:20;95103.66;;;12.11;64.43
61292;BME280;47165;42.664;23.368;2023-05-01T04:58:46;95110.38;;;12.15;64.48
61292;BME280;47165;42.664;23.368;2023-05-01T05:01:11;95108.22;;;12.22;64.45
61292;BME280;47165;42.664;23.368;2023-05-01T05:03:37;95106.34;;;12.24;64.48
61292;BME280;47165;42.664;23.368;2023-05-01T05:06:02;95115.31;;;12.20;64.98
61292;BME280;47165;42.664;23.368;2023-05-01T05:08:28;95114.94;;;12.26;65.02
61292;BME280;47165;42.664;23.368;2023-05-01T05:10:57;95118.06;;;12.33;65.08
61292;BME280;47165;42.664;23.368;2023-05-01T05:13:24;95121.78;;;12.43;65.10
61292;BME280;47165;42.664;23.368;2023-05-01T05:15:49;95132.44;;;12.40;65.32
61292;BME280;47165;42.664;23.368;2023-05-01T05:18:15;95134.59;;;12.19;66.63
61292;BME280;47165;42.664;23.368;2023-05-01T05:20:40;95132.44;;;12.11;67.39
61292;BME280;47165;42.664;23.368;2023-05-01T05:23:06;95130.78;;;12.24;66.56
61292;BME280;47165;42.664;23.368;2023-05-01T05:25:31;95128.88;;;12.41;65.76
61292;BME280;47165;42.664;23.368;2023-05-01T05:27:58;95135.03;;;12.54;65.40
61292;BME280;47165;42.664;23.368;2023-05-01T05:30:25;95143.06;;;12.65;64.91
61292;BME280;47165;42.664;23.368;2023-05-01T05:32:50;95131.81;;;12.78;64.37
61292;BME280;47165;42.664;23.368;2023-05-01T05:35:16;95139.28;;;12.84;64.39
61292;BME280;47165;42.664;23.368;2023-05-01T05:37:41;95134.56;;;12.89;64.08
61292;BME280;47165;42.664;23.368;2023-05-01T05:40:07;95134.28;;;12.94;63.98
61292;BME280;47165;42.664;23.368;2023-05-01T05:42:33;95143.94;;;12.93;64.05
61292;BME280;47165;42.664;23.368;2023-05-01T05:44:58;95136.50;;;13.00;63.83
61292;BME280;47165;42.664;23.368;2023-05-01T05:47:24;95140.72;;;13.02;64.28
61292;BME280;47165;42.664;23.368;2023-05-01T05:49:49;95145.28;;;12.86;64.67
61292;BME280;47165;42.664;23.368;2023-05-01T05:52:15;95141.66;;;13.01;63.84
61292;BME280;47165;42.664;23.368;2023-05-01T05:54:41;95140.13;;;13.12;63.33
61292;BME280;47165;42.664;23.368;2023-05-01T05:57:06;95142.25;;;13.19;63.55
61292;BME280;47165;42.664;23.368;2023-05-01T05:59:31;95141.94;;;13.24;63.52
61292;BME280;47165;42.664;23.368;2023-05-01T06:01:57;95154.28;;;13.36;62.93
61292;BME280;47165;42.664;23.368;2023-05-01T06:04:24;95143.47;;;13.41;62.80
61292;BME280;47165;42.664;23.368;2023-05-01T06:06:49;95156.00;;;13.50;62.64
61292;BME280;47165;42.664;23.368;2023-05-01T06:09:15;95155.69;;;13.55;62.56
61292;BME280;47165;42.664;23.368;2023-05-01T06:11:43;95154.38;;;13.62;62.02
61292;BME280;47165;42.664;23.368;2023-05-01T06:14:09;95158.47;;;13.66;62.58
61292;BME280;47165;42.664;23.368;2023-05-01T06:16:35;95157.09;;;13.73;62.38
61292;BME280;47165;42.664;23.368;2023-05-01T06:19:00;95167.81;;;13.70;63.18
61292;BME280;47165;42.664;23.368;2023-05-01T06:21:26;95159.84;;;13.84;62.59
61292;BME280;47165;42.664;23.368;2023-05-01T06:23:51;95160.91;;;13.95;61.97
61292;BME280;47165;42.664;23.368;2023-05-01T06:26:17;95157.88;;;14.01;62.06
61292;BME280;47165;42.664;23.368;2023-05-01T06:28:42;95140.09;;;14.04;61.79
61292;BME280;47165;42.664;23.368;2023-05-01T06:31:07;95157.78;;;14.15;61.91
61292;BME280;47165;42.664;23.368;2023-05-01T06:33:33;95156.38;;;14.22;61.78
61292;BME280;47165;42.664;23.368;2023-05-01T06:35:58;95159.25;;;14.19;61.83
61292;BME280;47165;42.664;23.368;2023-05-01T06:38:27;95154.00;;;14.19;62.42
61292;BME280;47165;42.664;23.368;2023-05-01T06:40:52;95151.03;;;14.37;61.93
61292;BME280;47165;42.664;23.368;2023-05-01T06:43:18;95152.88;;;14.47;61.87
61292;BME280;47165;42.664;23.368;2023-05-01T06:45:44;95156.72;;;14.56;61.56
61292;BME280;47165;42.664;23.368;2023-05-01T06:48:09;95150.69;;;14.54;61.33
61292;BME280;47165;42.664;23.368;2023-05-01T06:50:35;95149.13;;;14.64;60.87
61292;BME280;47165;42.664;23.368;2023-05-01T06:53:01;95151.09;;;14.74;60.88
61292;BME280;47165;42.664;23.368;2023-05-01T06:55:27;95151.81;;;14.76;59.69
61292;BME280;47165;42.664;23.368;2023-05-01T06:57:56;95155.28;;;14.89;59.90
61292;BME280;47165;42.664;23.368;2023-05-01T07:00:21;95150.06;;;15.00;60.17
61292;BME280;47165;42.664;23.368;2023-05-01T07:02:47;95151.03;;;14.99;59.97
61292;BME280;47165;42.664;23.368;2023-05-01T07:05:13;95153.59;;;15.12;59.23
61292;BME280;47165;42.664;23.368;2023-05-01T07:07:38;95160.94;;;15.20;59.43
61292;BME280;47165;42.664;23.368;2023-05-01T07:10:04;95155.53;;;15.34;59.47
61292;BME280;47165;42.664;23.368;2023-05-01T07:12:30;95162.63;;;15.45;59.52
61292;BME280;47165;42.664;23.368;2023-05-01T07:14:55;95157.56;;;15.42;59.11
61292;BME280;47165;42.664;23.368;2023-05-01T07:17:21;95157.25;;;15.46;58.29
61292;BME280;47165;42.664;23.368;2023-05-01T07:19:46;95174.50;;;15.51;59.31
61292;BME280;47165;42.664;23.368;2023-05-01T07:22:12;95167.13;;;15.67;59.21
61292;BME280;47165;42.664;23.368;2023-05-01T07:24:37;95167.44;;;15.75;58.53
61292;BME280;47165;42.664;23.368;2023-05-01T07:27:03;95169.09;;;15.76;58.00
61292;BME280;47165;42.664;23.368;2023-05-01T07:29:28;95167.09;;;15.91;58.10
61292;BME280;47165;42.664;23.368;2023-05-01T07:31:54;95165.09;;;15.95;58.13
61292;BME280;47165;42.664;23.368;2023-05-01T07:34:20;95177.31;;;16.07;57.82
61292;BME280;47165;42.664;23.368;2023-05-01T07:36:45;95166.44;;;16.12;56.34
61292;BME280;47165;42.664;23.368;2023-05-01T07:39:11;95157.84;;;16.21;56.55
61292;BME280;47165;42.664;23.368;2023-05-01T07:41:37;95165.59;;;16.11;56.61
61292;BME280;47165;42.664;23.368;2023-05-01T07:44:03;95163.34;;;16.29;55.83
61292;BME280;47165;42.664;23.368;2023-05-01T07:46:28;95169.22;;;16.44;56.27
61292;BME280;47165;42.664;23.368;2023-05-01T07:48:54;95169.59;;;16.50;56.35
61292;BME280;47165;42.664;23.368;2023-05-01T07:51:20;95170.53;;;16.61;57.18
61292;BME280;47165;42.664;23.368;2023-05-01T07:53:46;95163.97;;;16.78;56.57
61292;BME280;47165;42.664;23.368;2023-05-01T07:56:12;95160.63;;;16.87;55.06
61292;BME280;47165;42.664;23.368;2023-05-01T07:58:37;95160.25;;;16.92;54.40
61292;BME280;47165;42.664;23.368;2023-05-01T08:01:05;95165.53;;;17.03;54.10
61292;BME280;47165;42.664;23.368;2023-05-01T08:03:31;95162.50;;;17.19;54.65
61292;BME280;47165;42.664;23.368;2023-05-01T08:05:57;95158.00;;;17.30;54.56
61292;BME280;47165;42.664;23.368;2023-05-01T08:08:22;95167.00;;;17.39;53.73
61292;BME280;47165;42.664;23.368;2023-05-01T08:10:48;95146.22;;;17.46;52.78
61292;BME280;47165;42.664;23.368;2023-05-01T08:13:13;95163.69;;;17.58;53.28
61292;BME280;47165;42.664;23.368;2023-05-01T08:15:40;95162.34;;;17.64;53.26
61292;BME280;47165;42.664;23.368;2023-05-01T08:18:08;95158.34;;;17.69;52.91
61292;BME280;47165;42.664;23.368;2023-05-01T08:20:36;95158.41;;;17.79;52.51
61292;BME280;47165;42.664;23.368;2023-05-01T08:23:02;95154.16;;;17.67;49.80
61292;BME280;47165;42.664;23.368;2023-05-01T08:25:27;95159.25;;;17.80;50.81
61292;BME280;47165;42.664;23.368;2023-05-01T08:27:53;95156.72;;;17.89;49.88
61292;BME280;47165;42.664;23.368;2023-05-01T08:30:19;95162.47;;;17.95;48.86
61292;BME280;47165;42.664;23.368;2023-05-01T08:32:45;95162.00;;;18.10;46.62
61292;BME280;47165;42.664;23.368;2023-05-01T08:35:10;95159.03;;;18.25;46.46
61292;BME280;47165;42.664;23.368;2023-05-01T08:37:36;95160.91;;;18.13;45.70
61292;BME280;47165;42.664;23.368;2023-05-01T08:40:01;95149.03;;;18.28;47.28
61292;BME280;47165;42.664;23.368;2023-05-01T08:42:34;95153.84;;;18.44;48.60
61292;BME280;47165;42.664;23.368;2023-05-01T08:45:00;95149.03;;;18.59;47.78
61292;BME280;47165;42.664;23.368;2023-05-01T08:47:26;95139.22;;;18.71;46.74
61292;BME280;47165;42.664;23.368;2023-05-01T08:49:55;95146.56;;;18.67;45.61
61292;BME280;47165;42.664;23.368;2023-05-01T08:52:22;95148.22;;;18.89;45.70
61292;BME280;47165;42.664;23.368;2023-05-01T08:54:49;95142.13;;;19.08;45.49
61292;BME280;47165;42.664;23.368;2023-05-01T08:57:16;95151.09;;;19.27;45.42
61292;BME280;47165;42.664;23.368;2023-05-01T08:59:43;95144.66;;;19.29;44.54
61292;BME280;47165;42.664;23.368;2023-05-01T09:02:09;95140.78;;;19.24;42.37
61292;BME280;47165;42.664;23.368;2023-05-01T09:04:39;95135.09;;;19.38;41.73
61292;BME280;47165;42.664;23.368;2023-05-01T09:07:05;95136.78;;;19.59;42.56
61292;BME280;47165;42.664;23.368;2023-05-01T09:09:31;95137.88;;;19.66;42.94
61292;BME280;47165;42.664;23.368;2023-05-01T09:12:01;95142.66;;;19.82;42.30
61292;BME280;47165;42.664;23.368;2023-05-01T09:14:31;95141.09;;;19.99;41.89
61292;BME280;47165;42.664;23.368;2023-05-01T09:16:57;95140.13;;;19.80;42.22
61292;BME280;47165;42.664;23.368;2023-05-01T09:19:24;95136.53;;;19.81;40.58
61292;BME280;47165;42.664;23.368;2023-05-01T09:21:50;95137.31;;;20.01;40.10
61292;BME280;47165;42.664;23.368;2023-05-01T09:24:17;95132.69;;;20.13;40.79
61292;BME280;47165;42.664;23.368;2023-05-01T09:26:43;95135.47;;;20.21;41.34
61292;BME280;47165;42.664;23.368;2023-05-01T09:29:08;95137.81;;;20.34;41.64
61292;BME280;47165;42.664;23.368;2023-05-01T09:31:35;95133.31;;;20.44;42.43
61292;BME280;47165;42.664;23.368;2023-05-01T09:34:03;95135.09;;;20.54;42.63
61292;BME280;47165;42.664;23.368;2023-05-01T09:36:30;95134.78;;;20.57;40.58
61292;BME280;47165;42.664;23.368;2023-05-01T09:38:59;95130.63;;;20.54;40.77
61292;BME280;47165;42.664;23.368;2023-05-01T09:41:26;95138.72;;;20.62;42.34
61292;BME280;47165;42.664;23.368;2023-05-01T09:43:54;95127.63;;;20.77;42.26
61292;BME280;47165;42.664;23.368;2023-05-01T09:46:21;95139.19;;;20.85;42.99
61292;BME280;47165;42.664;23.368;2023-05-01T09:48:55;95127.28;;;20.89;40.99
61292;BME280;47165;42.664;23.368;2023-05-01T09:51:25;95122.28;;;20.86;39.83
61292;BME280;47165;42.664;23.368;2023-05-01T09:53:54;95127.56;;;20.96;41.25
61292;BME280;47165;42.664;23.368;2023-05-01T09:56:19;95121.38;;;20.96;41.18
61292;BME280;47165;42.664;23.368;2023-05-01T09:58:49;95120.13;;;20.72;40.80
61292;BME280;47165;42.664;23.368;2023-05-01T10:01:16;95120.66;;;21.03;40.36
61292;BME280;47165;42.664;23.368;2023-05-01T10:03:42;95109.75;;;21.24;40.85
61292;BME280;47165;42.664;23.368;2023-05-01T10:06:08;95107.84;;;21.44;39.84
61292;BME280;47165;42.664;23.368;2023-05-01T10:08:47;95116.88;;;21.52;38.32
61292;BME280;47165;42.664;23.368;2023-05-01T10:11:13;95113.91;;;21.55;37.76
61292;BME280;47165;42.664;23.368;2023-05-01T10:13:39;95114.66;;;21.47;37.41
61292;BME280;47165;42.664;23.368;2023-05-01T10:16:04;95109.59;;;21.54;40.15
61292;BME280;47165;42.664;23.368;2023-05-01T10:18:35;95107.75;;;21.54;37.35
61292;BME280;47165;42.664;23.368;2023-05-01T10:21:03;95105.06;;;21.90;36.88
61292;BME280;47165;42.664;23.368;2023-05-01T10:23:29;95108.06;;;22.13;37.53
61292;BME280;47165;42.664;23.368;2023-05-01T10:25:55;95099.59;;;22.36;35.91
61292;BME280;47165;42.664;23.368;2023-05-01T10:28:23;95096.81;;;22.45;36.00
61292;BME280;47165;42.664;23.368;2023-05-01T10:30:49;95093.09;;;22.64;36.49
61292;BME280;47165;42.664;23.368;2023-05-01T10:33:15;95095.88;;;22.55;34.34
61292;BME280;47165;42.664;23.368;2023-05-01T10:35:44;95089.47;;;22.74;36.02
61292;BME280;47165;42.664;23.368;2023-05-01T10:38:21;95095.91;;;22.97;35.72
61292;BME280;47165;42.664;23.368;2023-05-01T10:40:49;95092.47;;;23.21;35.80
61292;BME280;47165;42.664;23.368;2023-05-01T10:45:47;95099.38;;;23.40;34.46
61292;BME280;47165;42.664;23.368;2023-05-01T10:51:17;95089.19;;;23.52;33.33
61292;BME280;47165;42.664;23.368;2023-05-01T10:53:45;95097.38;;;23.42;32.89
61292;BME280;47165;42.664;23.368;2023-05-01T10:58:55;95096.94;;;23.04;34.34
61292;BME280;47165;42.664;23.368;2023-05-01T11:01:39;95098.97;;;23.19;35.14
61292;BME280;47165;42.664;23.368;2023-05-01T11:12:08;95085.41;;;23.55;33.51
61292;BME280;47165;42.664;23.368;2023-05-01T11:15:09;95095.25;;;23.95;33.69
61292;BME280;47165;42.664;23.368;2023-05-01T11:22:33;95093.84;;;24.57;31.66
61292;BME280;47165;42.664;23.368;2023-05-01T11:24:59;95092.34;;;24.54;30.90
61292;BME280;47165;42.664;23.368;2023-05-01T11:27:25;95088.56;;;24.07;31.09
61292;BME280;47165;42.664;23.368;2023-05-01T11:29:52;95087.03;;;24.29;31.77
61292;BME280;47165;42.664;23.368;2023-05-01T11:32:27;95098.09;;;24.18;31.46
61292;BME280;47165;42.664;23.368;2023-05-01T11:34:54;95100.72;;;23.61;31.81
61292;BME280;47165;42.664;23.368;2023-05-01T11:37:41;95093.59;;;23.94;33.62
61292;BME280;47165;42.664;23.368;2023-05-01T11:40:24;95093.69;;;24.50;33.14
61292;BME280;47165;42.664;23.368;2023-05-01T11:42:59;95081.34;;;24.49;30.73
61292;BME280;47165;42.664;23.368;2023-05-01T11:45:25;95079.78;;;25.10;33.12
61292;BME280;47165;42.664;23.368;2023-05-01T11:47:50;95082.91;;;25.54;32.57
61292;BME280;47165;42.664;23.368;2023-05-01T11:50:17;95082.97;;;25.45;29.11
61292;BME280;47165;42.664;23.368;2023-05-01T11:52:50;95087.19;;;26.09;30.97
61292;BME280;47165;42.664;23.368;2023-05-01T11:55:19;95084.19;;;26.86;30.52
61292;BME280;47165;42.664;23.368;2023-05-01T12:00:15;95090.56;;;27.52;27.44
61292;BME280;47165;42.664;23.368;2023-05-01T12:03:09;95091.16;;;27.68;28.11
61292;BME280;47165;42.664;23.368;2023-05-01T12:05:37;95090.22;;;27.55;26.75
61292;BME280;47165;42.664;23.368;2023-05-01T12:10:39;95091.16;;;29.44;24.14
61292;BME280;47165;42.664;23.368;2023-05-01T12:13:05;95095.16;;;29.68;21.99
61292;BME280;47165;42.664;23.368;2023-05-01T12:15:37;95092.03;;;29.58;22.36
61292;BME280;47165;42.664;23.368;2023-05-01T12:18:04;95091.81;;;29.60;23.46
61292;BME280;47165;42.664;23.368;2023-05-01T12:20:41;95103.38;;;29.05;23.70
61292;BME280;47165;42.664;23.368;2023-05-01T12:23:09;95106.19;;;28.84;24.18
61292;BME280;47165;42.664;23.368;2023-05-01T12:25:36;95103.41;;;28.71;24.14
61292;BME280;47165;42.664;23.368;2023-05-01T12:28:08;95105.28;;;27.77;23.76
61292;BME280;47165;42.664;23.368;2023-05-01T12:30:37;95106.53;;;27.38;25.35
61292;BME280;47165;42.664;23.368;2023-05-01T12:33:14;95108.00;;;27.41;25.04
61292;BME280;47165;42.664;23.368;2023-05-01T12:35:41;95096.75;;;27.52;26.09
61292;BME280;47165;42.664;23.368;2023-05-01T12:40:52;95098.50;;;27.60;24.59
61292;BME280;47165;42.664;23.368;2023-05-01T12:43:29;95094.66;;;28.62;24.21
61292;BME280;47165;42.664;23.368;2023-05-01T12:45:55;95097.13;;;28.07;25.36
61292;BME280;47165;42.664;23.368;2023-05-01T12:48:22;95097.22;;;26.89;25.83
61292;BME280;47165;42.664;23.368;2023-05-01T12:50:48;95102.06;;;27.45;25.67
61292;BME280;47165;42.664;23.368;2023-05-01T12:53:20;95090.00;;;27.05;25.39
61292;BME280;47165;42.664;23.368;2023-05-01T12:55:49;95103.69;;;27.10;26.15
61292;BME280;47165;42.664;23.368;2023-05-01T12:58:15;95089.28;;;28.34;26.14
61292;BME280;47165;42.664;23.368;2023-05-01T13:03:11;95089.63;;;29.83;24.01
61292;BME280;47165;42.664;23.368;2023-05-01T13:05:49;95100.13;;;31.05;22.73
61292;BME280;47165;42.664;23.368;2023-05-01T13:08:23;95086.25;;;31.92;21.57
61292;BME280;47165;42.664;23.368;2023-05-01T13:10:49;95103.66;;;32.27;20.29
61292;BME280;47165;42.664;23.368;2023-05-01T13:13:23;95093.47;;;32.80;20.40
61292;BME280;47165;42.664;23.368;2023-05-01T13:15:48;95099.53;;;32.50;19.80
61292;BME280;47165;42.664;23.368;2023-05-01T13:18:14;95092.91;;;33.15;21.21
61292;BME280;47165;42.664;23.368;2023-05-01T13:20:39;95089.31;;;32.77;20.98
61292;BME280;47165;42.664;23.368;2023-05-01T13:23:10;95100.41;;;32.19;20.92
61292;BME280;47165;42.664;23.368;2023-05-01T13:25:37;95093.66;;;32.03;20.26
61292;BME280;47165;42.664;23.368;2023-05-01T13:28:03;95095.44;;;30.54;21.99
61292;BME280;47165;42.664;23.368;2023-05-01T13:30:32;95102.97;;;31.75;22.11
61292;BME280;47165;42.664;23.368;2023-05-01T13:32:58;95112.84;;;32.26;21.43
61292;BME280;47165;42.664;23.368;2023-05-01T13:35:25;95118.47;;;31.86;19.87